Time;durP1;ratioP1;P1;durP2;ratioP2;P2;SDS_P1;SDS_P2;PMS_P1;PMS_P2;Temp;Humidity;BMP_temperature;BMP_pressure;BME280_temperature;BME280_humidity;BME280_pressure;Samples;Min_cycle;Max_cycle;Signal;HPM_P1;HPM_P2
2021/09/13 00:01:39;;;;;;;13.70;11.20;;;;;;;16.35;84.76;96708.63;113934;1203;30795;-91
2021/09/13 00:04:10;;;;;;;12.90;10.70;;;;;;;16.38;84.65;96705.33;113902;1203;34469;-91
2021/09/13 00:06:41;;;;;;;17.20;11.80;;;;;;;16.39;84.61;96704.75;113983;1203;33250;-91
2021/09/13 00:09:11;;;;;;;14.20;11.40;;;;;;;16.42;84.53;96706.11;113894;1203;35914;-91
2021/09/13 00:11:44;;;;;;;12.90;10.90;;;;;;;16.45;84.35;96701.73;113908;1203;38698;-91
2021/09/13 00:14:15;;;;;;;13.00;10.00;;;;;;;16.48;84.20;96705.84;113906;1203;32938;-91
2021/09/13 00:16:46;;;;;;;13.90;10.60;;;;;;;16.50;84.04;96707.60;113909;1203;35750;-91
2021/09/13 00:19:17;;;;;;;14.90;10.60;;;;;;;16.53;83.87;96704.55;113905;1203;31448;-91
2021/09/13 00:21:48;;;;;;;13.70;10.30;;;;;;;16.55;83.72;96704.86;113916;1204;36694;-91
2021/09/13 00:24:19;;;;;;;13.90;10.40;;;;;;;16.55;83.59;96708.55;113954;1203;30615;-91
2021/09/13 00:26:50;;;;;;;12.20;10.00;;;;;;;16.56;83.40;96711.85;113916;1203;31012;-91
2021/09/13 00:29:22;;;;;;;12.20;10.20;;;;;;;16.58;83.22;96712.54;113875;1203;47420;-90
2021/09/13 00:31:52;;;;;;;13.00;10.00;;;;;;;16.58;83.07;96713.33;113973;1194;34058;-91
2021/09/13 00:34:24;;;;;;;11.70;10.20;;;;;;;16.60;82.98;96714.88;113918;1204;36282;-91
2021/09/13 00:36:55;;;;;;;12.60;11.10;;;;;;;16.59;82.95;96713.67;113983;1199;44876;-91
2021/09/13 00:39:26;;;;;;;12.90;10.50;;;;;;;16.57;82.92;96713.14;113949;1203;37040;-92
2021/09/13 00:41:57;;;;;;;12.10;9.90;;;;;;;16.55;82.81;96708.92;114009;1203;39512;-91
2021/09/13 00:44:28;;;;;;;12.40;10.40;;;;;;;16.54;82.72;96711.23;114012;1210;34705;-92
2021/09/13 00:47:00;;;;;;;13.20;10.40;;;;;;;16.52;82.92;96709.87;113952;1203;38763;-91
2021/09/13 00:49:31;;;;;;;13.10;10.50;;;;;;;16.47;82.86;96707.34;113909;1203;44289;-91
2021/09/13 00:52:03;;;;;;;11.90;10.00;;;;;;;16.45;82.82;96704.52;113951;1210;42152;-92
2021/09/13 00:54:34;;;;;;;12.40;9.70;;;;;;;16.42;82.88;96704.09;113827;1201;39606;-91
2021/09/13 00:57:06;;;;;;;11.40;9.90;;;;;;;16.42;82.84;96706.39;113928;1207;32043;-91
2021/09/13 00:59:37;;;;;;;12.60;10.00;;;;;;;16.42;82.82;96700.91;113915;1203;39407;-91
2021/09/13 01:02:08;;;;;;;14.50;10.70;;;;;;;16.42;82.89;96700.66;113936;1204;33396;-91
2021/09/13 01:04:40;;;;;;;13.50;10.10;;;;;;;16.42;82.77;96700.91;113940;1203;35510;-91
2021/09/13 01:07:11;;;;;;;12.40;10.40;;;;;;;16.42;82.74;96697.89;113916;1203;34674;-90
2021/09/13 01:09:42;;;;;;;11.60;10.00;;;;;;;16.42;82.72;96692.70;113943;1203;31748;-91
2021/09/13 01:12:14;;;;;;;12.10;10.20;;;;;;;16.43;82.69;96694.80;113935;1203;59047;-91
2021/09/13 01:14:45;;;;;;;12.70;10.40;;;;;;;16.41;82.69;96689.45;113907;1203;44150;-91
2021/09/13 01:17:16;;;;;;;12.00;10.10;;;;;;;16.40;82.54;96687.03;113935;1203;29982;-91
2021/09/13 01:19:47;;;;;;;11.00;9.60;;;;;;;16.40;82.52;96686.42;113909;1203;53362;-90
2021/09/13 01:22:20;;;;;;;12.60;10.20;;;;;;;16.39;82.38;96686.31;113853;1204;37921;-91
2021/09/13 01:24:51;;;;;;;12.50;10.20;;;;;;;16.38;82.25;96684.95;113889;1203;31168;-89
2021/09/13 01:27:23;;;;;;;13.00;9.50;;;;;;;16.36;82.13;96688.70;113868;1203;66386;-92
2021/09/13 01:29:53;;;;;;;11.40;9.90;;;;;;;16.33;81.98;96687.71;113936;1203;38430;-92
2021/09/13 01:32:24;;;;;;;11.60;9.80;;;;;;;16.29;81.96;96683.10;113996;1203;36238;-91
2021/09/13 01:34:55;;;;;;;11.20;9.10;;;;;;;16.27;82.01;96679.67;113973;1203;42383;-92
2021/09/13 01:37:26;;;;;;;12.20;10.00;;;;;;;16.27;81.97;96681.25;113989;1203;39307;-91
2021/09/13 01:39:57;;;;;;;12.70;10.10;;;;;;;16.26;81.99;96682.61;113988;1203;31974;-92
2021/09/13 01:42:28;;;;;;;14.20;10.60;;;;;;;16.24;81.92;96684.43;114032;1203;35617;-92
2021/09/13 01:44:59;;;;;;;14.20;9.50;;;;;;;16.22;81.89;96683.80;113914;1202;46859;-92
2021/09/13 01:47:31;;;;;;;15.30;9.90;;;;;;;16.22;81.84;96683.33;113933;1198;42050;-92
2021/09/13 01:50:04;;;;;;;14.50;10.30;;;;;;;16.23;81.84;96685.91;113841;1196;49977;-92
2021/09/13 01:52:35;;;;;;;11.30;9.30;;;;;;;16.20;81.72;96683.83;113929;1203;37910;-92
2021/09/13 01:55:07;;;;;;;11.80;9.00;;;;;;;16.16;81.68;96685.64;113846;1210;46082;-93
2021/09/13 01:57:38;;;;;;;11.10;9.20;;;;;;;16.15;81.89;96683.20;113744;1204;59097;-92
2021/09/13 02:00:11;;;;;;;14.40;10.00;;;;;;;16.14;81.97;96683.70;113876;1203;42543;-90
2021/09/13 02:02:43;;;;;;;10.60;9.30;;;;;;;16.09;81.84;96682.02;113963;1203;32806;-91
2021/09/13 02:05:14;;;;;;;11.00;8.80;;;;;;;16.04;81.93;96682.41;113961;1203;34443;-90
2021/09/13 02:07:45;;;;;;;13.30;9.90;;;;;;;15.96;82.03;96678.61;113933;1203;35340;-91
2021/09/13 02:10:16;;;;;;;13.10;9.20;;;;;;;15.88;82.35;96680.48;113948;1210;33913;-91
2021/09/13 02:12:47;;;;;;;13.80;9.70;;;;;;;15.79;82.81;96679.19;113967;1203;44112;-91
2021/09/13 02:15:18;;;;;;;11.60;9.00;;;;;;;15.73;82.80;96677.77;113997;1203;32178;-90
2021/09/13 02:17:50;;;;;;;15.10;9.50;;;;;;;15.73;83.00;96681.55;113907;1203;33705;-92
2021/09/13 02:20:21;;;;;;;12.00;9.40;;;;;;;15.73;82.95;96684.91;113931;1203;32615;-92
2021/09/13 02:22:52;;;;;;;11.00;9.10;;;;;;;15.73;82.98;96684.30;113993;1203;31334;-88
2021/09/13 02:25:23;;;;;;;12.40;9.50;;;;;;;15.74;83.13;96684.82;114005;1203;34768;-92
2021/09/13 02:27:54;;;;;;;11.80;9.20;;;;;;;15.74;83.24;96686.42;114019;1203;49175;-92
2021/09/13 02:30:25;;;;;;;10.50;8.70;;;;;;;15.75;83.13;96690.29;113956;1204;34619;-91
2021/09/13 02:32:56;;;;;;;10.20;8.60;;;;;;;15.77;83.05;96688.77;114047;1210;30190;-92
2021/09/13 02:35:27;;;;;;;11.10;9.10;;;;;;;15.79;83.02;96686.43;114016;1203;43726;-91
2021/09/13 02:37:58;;;;;;;9.80;8.50;;;;;;;15.82;82.81;96688.00;114018;1203;32296;-92
2021/09/13 02:40:30;;;;;;;12.10;9.00;;;;;;;15.84;82.79;96690.87;114070;1203;29893;-91
2021/09/13 02:43:01;;;;;;;11.90;8.60;;;;;;;15.85;82.89;96688.27;113952;1200;43909;-91
2021/09/13 02:45:32;;;;;;;10.80;9.00;;;;;;;15.87;82.91;96692.45;113996;1203;29357;-91
2021/09/13 02:48:03;;;;;;;10.00;8.30;;;;;;;15.87;82.93;96688.33;113961;1203;32358;-91
2021/09/13 02:50:34;;;;;;;13.70;8.80;;;;;;;15.88;82.99;96694.27;113963;1203;33020;-91
2021/09/13 02:53:05;;;;;;;11.10;9.20;;;;;;;15.89;82.99;96695.62;113938;1203;29723;-92
2021/09/13 02:55:36;;;;;;;12.70;9.80;;;;;;;15.92;82.96;96693.45;113947;1203;34953;-91
2021/09/13 02:58:07;;;;;;;12.40;9.30;;;;;;;15.94;82.94;96694.11;113942;1203;31806;-92
2021/09/13 03:00:38;;;;;;;11.20;8.80;;;;;;;15.97;82.84;96689.81;113892;1200;32676;-92
2021/09/13 03:03:09;;;;;;;11.90;9.50;;;;;;;15.96;82.48;96696.89;113819;1197;36778;-91
2021/09/13 03:05:40;;;;;;;10.60;8.60;;;;;;;15.93;82.55;96690.53;113843;1206;31654;-92
2021/09/13 03:08:11;;;;;;;10.50;8.60;;;;;;;15.88;82.69;96693.48;113845;1203;34959;-91
2021/09/13 03:10:42;;;;;;;10.50;9.00;;;;;;;15.81;83.01;96692.56;113870;1204;32431;-91
2021/09/13 03:13:13;;;;;;;11.90;9.40;;;;;;;15.76;83.55;96692.85;113908;1204;33445;-91
2021/09/13 03:15:44;;;;;;;11.00;9.20;;;;;;;15.72;83.58;96689.63;113860;1205;32985;-92
2021/09/13 03:18:15;;;;;;;11.30;9.70;;;;;;;15.69;83.70;96691.79;113868;1204;29750;-91
2021/09/13 03:20:46;;;;;;;10.60;9.00;;;;;;;15.67;83.91;96693.42;113834;1203;32014;-91
2021/09/13 03:23:17;;;;;;;13.00;10.10;;;;;;;15.65;84.02;96690.34;113858;1198;33469;-92
2021/09/13 03:25:48;;;;;;;11.90;8.90;;;;;;;15.64;84.14;96693.20;113821;1205;35320;-90
2021/09/13 03:28:19;;;;;;;10.20;9.00;;;;;;;15.65;83.99;96697.22;113744;1197;39853;-91
2021/09/13 03:30:51;;;;;;;11.80;8.60;;;;;;;15.67;84.10;96697.11;113843;1204;32150;-91
2021/09/13 03:33:22;;;;;;;11.80;9.00;;;;;;;15.69;84.06;96698.87;113887;1205;29549;-90
2021/09/13 03:35:53;;;;;;;13.10;10.00;;;;;;;15.69;84.13;96696.79;113870;1203;30384;-88
2021/09/13 03:38:24;;;;;;;11.50;8.90;;;;;;;15.70;84.13;96704.03;113853;1206;33211;-91
2021/09/13 03:40:55;;;;;;;12.90;9.00;;;;;;;15.72;84.09;96702.84;113927;1206;32267;-92
2021/09/13 03:43:26;;;;;;;10.40;9.00;;;;;;;15.73;84.09;96702.88;113989;1204;32082;-91
2021/09/13 03:45:57;;;;;;;11.00;8.70;;;;;;;15.72;84.04;96704.94;113922;1204;32460;-90
2021/09/13 03:48:28;;;;;;;11.60;9.50;;;;;;;15.70;84.20;96704.71;113925;1209;30826;-91
2021/09/13 03:50:59;;;;;;;12.00;9.10;;;;;;;15.70;84.33;96708.14;113931;1203;29962;-91
2021/09/13 03:53:30;;;;;;;11.80;9.50;;;;;;;15.70;84.34;96708.99;113915;1203;32660;-91
2021/09/13 03:56:01;;;;;;;11.20;9.60;;;;;;;15.71;84.30;96707.74;113717;1200;44829;-91
2021/09/13 03:58:32;;;;;;;10.60;9.40;;;;;;;15.72;84.52;96711.77;113847;1204;53033;-92
2021/09/13 04:01:03;;;;;;;13.40;10.10;;;;;;;15.73;84.79;96712.65;113934;1202;35118;-92
2021/09/13 04:03:39;;;;;;;11.30;9.60;;;;;;;15.75;85.04;96711.37;113942;1203;38849;-92
2021/09/13 04:06:19;;;;;;;12.90;10.60;;;;;;;15.76;85.20;96714.82;113855;1203;71831;-92
2021/09/13 04:11:47;;;;;;;12.60;10.00;;;;;;;15.80;85.27;96710.20;113956;1198;56366;-91
2021/09/13 04:14:18;;;;;;;10.40;8.90;;;;;;;15.83;85.29;96706.46;113994;1203;38520;-88
2021/09/13 04:16:49;;;;;;;12.10;9.30;;;;;;;15.83;85.38;96711.52;114014;1204;25620;-88
2021/09/13 04:19:22;;;;;;;13.00;10.30;;;;;;;15.82;85.43;96713.23;113967;1210;28549;-88
2021/09/13 04:21:54;;;;;;;13.20;9.90;;;;;;;15.80;85.66;96714.30;113900;1207;56426;-87
2021/09/13 04:24:25;;;;;;;11.60;10.20;;;;;;;15.78;85.74;96712.38;114002;1203;51582;-87
2021/09/13 04:26:56;;;;;;;11.90;9.90;;;;;;;15.79;85.76;96710.48;113957;1204;48444;-87
2021/09/13 04:29:27;;;;;;;11.60;9.90;;;;;;;15.77;85.96;96710.48;114051;1203;25096;-87
2021/09/13 04:31:58;;;;;;;11.70;9.80;;;;;;;15.77;86.04;96711.40;114017;1203;26409;-88
2021/09/13 04:34:28;;;;;;;13.70;9.90;;;;;;;15.78;86.06;96705.23;114072;1202;25781;-88
2021/09/13 04:36:59;;;;;;;11.90;9.60;;;;;;;15.79;86.19;96708.73;114088;1203;26854;-88
2021/09/13 04:39:30;;;;;;;12.80;10.40;;;;;;;15.79;86.29;96708.57;114063;1203;25807;-86
2021/09/13 04:42:02;;;;;;;10.90;9.70;;;;;;;15.80;86.32;96710.55;114092;1203;27484;-87
2021/09/13 04:44:33;;;;;;;12.50;10.50;;;;;;;15.82;86.29;96712.23;114000;1203;26879;-88
2021/09/13 04:47:04;;;;;;;12.10;10.20;;;;;;;15.84;86.35;96712.20;114017;1204;25744;-87
2021/09/13 04:49:35;;;;;;;13.10;10.80;;;;;;;15.88;86.19;96709.78;114020;1203;28005;-89
2021/09/13 04:52:06;;;;;;;11.70;10.30;;;;;;;15.94;86.04;96712.14;114023;1204;30328;-88
2021/09/13 04:54:38;;;;;;;12.20;9.90;;;;;;;16.04;85.86;96713.52;113969;1203;24702;-88
2021/09/13 04:57:09;;;;;;;11.70;9.70;;;;;;;16.15;85.67;96719.46;113991;1203;27331;-88
2021/09/13 04:59:40;;;;;;;11.70;9.70;;;;;;;16.23;85.40;96718.77;113933;1203;24680;-88
2021/09/13 05:02:11;;;;;;;11.00;9.50;;;;;;;16.32;85.22;96717.05;114007;1203;26764;-88
2021/09/13 05:04:42;;;;;;;10.70;8.40;;;;;;;16.43;85.10;96717.76;113958;1204;57632;-88
2021/09/13 05:07:13;;;;;;;11.20;9.00;;;;;;;16.49;84.86;96715.98;113994;1203;26583;-88
2021/09/13 05:09:43;;;;;;;12.30;9.30;;;;;;;16.54;84.46;96717.59;114011;1203;29995;-88
2021/09/13 05:12:14;;;;;;;12.40;9.50;;;;;;;16.55;84.18;96718.78;113989;1203;24717;-89
2021/09/13 05:14:45;;;;;;;11.00;9.00;;;;;;;16.57;84.15;96717.95;114002;1203;27498;-86
2021/09/13 05:17:16;;;;;;;10.30;8.70;;;;;;;16.64;84.00;96722.11;114033;1203;28362;-86
2021/09/13 05:19:47;;;;;;;11.80;9.80;;;;;;;16.70;83.67;96721.63;113912;1204;32449;-87
2021/09/13 05:22:22;;;;;;;10.50;8.40;;;;;;;16.75;83.16;96727.21;113895;1198;26935;-87
2021/09/13 05:24:57;;;;;;;11.80;9.20;;;;;;;16.83;82.88;96729.25;113988;1203;25508;-86
2021/09/13 05:27:28;;;;;;;11.60;8.70;;;;;;;16.98;82.67;96728.05;114102;1207;24994;-87
2021/09/13 05:29:59;;;;;;;11.20;8.80;;;;;;;17.19;82.21;96725.30;114053;1204;26934;-88
2021/09/13 05:32:30;;;;;;;10.60;8.60;;;;;;;17.31;81.57;96727.27;113941;1210;44056;-88
2021/09/13 05:35:02;;;;;;;11.00;8.30;;;;;;;17.39;81.00;96727.59;113995;1203;26798;-88
2021/09/13 05:37:33;;;;;;;11.30;8.80;;;;;;;17.35;80.68;96728.89;113943;1203;39761;-87
2021/09/13 05:40:06;;;;;;;11.20;8.90;;;;;;;17.40;80.91;96732.70;113945;1203;42509;-88
2021/09/13 05:42:37;;;;;;;10.60;8.50;;;;;;;17.49;80.74;96730.02;113920;1199;55159;-87
2021/09/13 05:45:10;;;;;;;10.80;8.80;;;;;;;17.59;80.65;96732.20;113992;1203;26094;-88
2021/09/13 05:47:41;;;;;;;9.90;8.40;;;;;;;17.63;80.30;96732.61;113986;1203;23899;-87
2021/09/13 05:50:13;;;;;;;12.60;9.30;;;;;;;17.57;79.85;96732.02;114011;1203;26152;-88
2021/09/13 05:52:44;;;;;;;10.20;8.70;;;;;;;17.48;79.83;96733.05;114076;1203;27167;-87
2021/09/13 05:55:15;;;;;;;11.80;8.90;;;;;;;17.40;79.83;96738.21;114020;1203;26566;-88
2021/09/13 05:57:46;;;;;;;11.90;9.00;;;;;;;17.29;79.64;96738.64;113998;1204;26102;-87
2021/09/13 06:00:19;;;;;;;10.70;9.20;;;;;;;17.17;79.72;96741.69;113960;1203;26787;-86
2021/09/13 06:02:50;;;;;;;11.70;9.30;;;;;;;17.11;80.07;96741.18;114035;1204;28146;-86
2021/09/13 06:05:21;;;;;;;10.30;9.00;;;;;;;17.12;80.31;96746.19;114003;1203;38654;-87
2021/09/13 06:07:52;;;;;;;14.80;8.80;;;;;;;17.12;80.27;96747.42;114050;1203;29127;-87
2021/09/13 06:10:23;;;;;;;10.40;9.20;;;;;;;17.14;80.47;96747.29;114043;1204;28671;-86
2021/09/13 06:12:54;;;;;;;12.30;9.30;;;;;;;17.15;80.37;96747.03;114025;1203;27251;-88
2021/09/13 06:15:25;;;;;;;10.30;8.60;;;;;;;17.12;80.35;96748.97;114038;1204;27489;-87
2021/09/13 06:17:56;;;;;;;11.00;9.00;;;;;;;17.05;80.37;96749.73;114035;1210;27453;-88
2021/09/13 06:20:27;;;;;;;11.10;9.40;;;;;;;16.99;80.49;96750.73;114069;1203;25331;-88
2021/09/13 06:22:58;;;;;;;10.20;8.20;;;;;;;16.95;80.59;96751.29;114057;1200;25786;-87
2021/09/13 06:25:29;;;;;;;12.80;9.10;;;;;;;16.91;80.64;96753.65;114050;1203;23939;-88
2021/09/13 06:27:59;;;;;;;11.90;9.20;;;;;;;16.89;80.74;96752.95;114097;1205;36907;-86
2021/09/13 06:30:33;;;;;;;10.90;9.00;;;;;;;16.87;80.84;96755.64;114060;1204;28982;-88
2021/09/13 06:33:04;;;;;;;13.60;9.40;;;;;;;16.83;80.84;96757.09;114020;1203;24551;-87
2021/09/13 06:35:40;;;;;;;12.30;9.70;;;;;;;16.80;81.08;96757.35;114674;1196;26527;-83
2021/09/13 06:38:12;;;;;;;11.80;9.50;;;;;;;16.75;81.13;96758.42;114136;1206;25645;-83
2021/09/13 06:40:43;;;;;;;11.00;8.90;;;;;;;16.71;81.17;96757.68;114182;1205;27184;-82
2021/09/13 06:43:16;;;;;;;10.10;8.40;;;;;;;16.68;81.21;96757.84;114080;1205;27106;-82
2021/09/13 06:45:56;;;;;;;22.90;17.10;;;;;;;16.65;81.31;96754.80;113968;1210;29040;-83
2021/09/13 06:48:28;;;;;;;20.10;14.20;;;;;;;16.62;81.34;96756.31;114022;1207;26455;-82
2021/09/13 06:50:59;;;;;;;292.90;176.90;;;;;;;16.64;81.55;96760.40;113999;1205;33136;-82
2021/09/13 06:53:31;;;;;;;158.20;108.30;;;;;;;16.63;81.89;96762.45;113977;1205;30422;-82
2021/09/13 06:56:04;;;;;;;212.60;139.60;;;;;;;16.66;82.46;96763.11;113980;1205;31049;-82
2021/09/13 06:58:36;;;;;;;53.80;41.80;;;;;;;16.72;82.64;96768.42;113963;1208;30500;-82
2021/09/13 07:01:07;;;;;;;209.60;134.30;;;;;;;16.81;82.86;96770.89;113990;1209;29009;-81
2021/09/13 07:03:38;;;;;;;100.60;66.30;;;;;;;16.90;82.89;96772.80;114027;1205;27101;-83
2021/09/13 07:06:09;;;;;;;82.00;52.60;;;;;;;17.02;82.55;96767.34;114025;1209;29213;-82
2021/09/13 07:08:40;;;;;;;47.90;34.40;;;;;;;17.40;82.38;96768.92;113876;1205;30180;-81
2021/09/13 07:11:11;;;;;;;80.00;45.70;;;;;;;17.76;81.70;96766.84;113975;1209;27562;-81
2021/09/13 07:13:42;;;;;;;189.10;100.80;;;;;;;18.04;80.92;96768.46;113973;1200;27137;-82
2021/09/13 07:16:13;;;;;;;89.20;48.40;;;;;;;18.31;80.45;96773.39;114056;1204;27800;-81
2021/09/13 07:18:44;;;;;;;31.50;22.70;;;;;;;18.77;80.27;96773.16;114057;1204;27893;-83
2021/09/13 07:21:15;;;;;;;13.90;10.70;;;;;;;19.42;78.96;96773.37;114087;1206;37034;-83
2021/09/13 07:23:46;;;;;;;15.00;13.00;;;;;;;19.82;77.76;96778.16;114112;1205;30218;-82
2021/09/13 07:26:17;;;;;;;16.40;11.60;;;;;;;20.29;77.22;96778.30;114070;1205;43678;-83
2021/09/13 07:28:48;;;;;;;10.10;8.80;;;;;;;20.33;75.30;96777.03;114083;1211;29458;-82
2021/09/13 07:31:19;;;;;;;10.80;8.30;;;;;;;20.15;75.12;96778.42;114094;1205;28602;-83
2021/09/13 07:33:50;;;;;;;11.70;9.70;;;;;;;20.22;75.30;96782.99;114083;1205;28972;-83
2021/09/13 07:36:21;;;;;;;18.70;14.30;;;;;;;19.99;74.44;96788.88;114083;1205;26134;-83
2021/09/13 07:38:52;;;;;;;20.50;14.90;;;;;;;19.61;74.51;96787.02;112561;1201;1618511;-83
2021/09/13 07:41:23;;;;;;;22.10;15.70;;;;;;;19.13;74.64;96793.55;113974;1205;29748;-83
2021/09/13 07:43:54;;;;;;;53.40;33.70;;;;;;;18.78;75.26;96791.48;113946;1205;27714;-83
2021/09/13 07:46:25;;;;;;;75.50;48.00;;;;;;;18.50;75.96;96793.44;113976;1204;26471;-84
2021/09/13 07:48:56;;;;;;;32.20;23.20;;;;;;;18.29;76.68;96797.52;113934;1203;28847;-84
2021/09/13 07:51:28;;;;;;;44.70;28.10;;;;;;;18.18;77.23;96802.21;113985;1205;30784;-83
2021/09/13 07:53:59;;;;;;;34.50;22.00;;;;;;;18.09;77.50;96798.80;113952;1206;29433;-84
2021/09/13 07:56:31;;;;;;;42.10;23.90;;;;;;;18.02;77.83;96801.16;114008;1205;26870;-83
2021/09/13 07:59:03;;;;;;;40.70;23.10;;;;;;;17.99;78.30;96805.90;113961;1205;29074;-83
2021/09/13 08:01:34;;;;;;;16.60;11.80;;;;;;;17.99;78.56;96808.92;113864;1211;56026;-83
2021/09/13 08:04:06;;;;;;;13.30;10.50;;;;;;;18.10;79.30;96803.40;114054;1204;29410;-83
2021/09/13 08:06:37;;;;;;;14.60;11.20;;;;;;;18.62;79.95;96803.95;114029;1205;27650;-85
2021/09/13 08:09:08;;;;;;;29.00;20.90;;;;;;;19.32;79.80;96805.83;114042;1205;30739;-83
2021/09/13 08:11:40;;;;;;;29.60;20.60;;;;;;;20.23;79.46;96804.11;113885;1208;30845;-84
2021/09/13 08:14:11;;;;;;;15.90;11.30;;;;;;;21.06;78.06;96803.99;113964;1209;26013;-84
2021/09/13 08:16:43;;;;;;;39.70;25.80;;;;;;;21.26;74.97;96806.70;113946;1200;31281;-83
2021/09/13 08:19:15;;;;;;;13.80;11.10;;;;;;;21.03;73.14;96806.52;113947;1211;26085;-84
2021/09/13 08:21:46;;;;;;;12.20;10.40;;;;;;;20.73;73.02;96808.93;114000;1205;26108;-84
2021/09/13 08:24:17;;;;;;;18.10;13.30;;;;;;;20.49;73.51;96812.21;114113;1199;27512;-84
2021/09/13 08:26:47;;;;;;;14.70;11.50;;;;;;;20.43;73.59;96817.48;113985;1204;28631;-83
2021/09/13 08:29:18;;;;;;;12.90;10.40;;;;;;;20.30;73.47;96816.71;114022;1205;28628;-86
2021/09/13 08:31:49;;;;;;;13.70;11.10;;;;;;;20.24;73.30;96815.16;113931;1205;31163;-83
2021/09/13 08:34:22;;;;;;;12.50;10.40;;;;;;;20.12;73.79;96814.15;114019;1206;28174;-84
2021/09/13 08:36:53;;;;;;;37.10;24.20;;;;;;;20.20;74.14;96817.39;114004;1208;28014;-84
2021/09/13 08:39:24;;;;;;;32.10;22.00;;;;;;;20.24;73.97;96819.83;113939;1205;26223;-84
2021/09/13 08:41:55;;;;;;;21.00;15.70;;;;;;;20.31;74.55;96821.38;113983;1206;28404;-85
2021/09/13 08:44:27;;;;;;;17.00;13.00;;;;;;;20.65;74.38;96823.73;114019;1204;29327;-83
2021/09/13 08:47:03;;;;;;;20.80;14.10;;;;;;;20.72;73.16;96824.26;113922;1205;28814;-83
2021/09/13 08:49:38;;;;;;;14.90;11.60;;;;;;;20.83;73.83;96828.04;113941;1208;40383;-84
2021/09/13 08:52:10;;;;;;;13.80;10.60;;;;;;;21.05;73.48;96823.84;114066;1200;29378;-84
2021/09/13 08:54:41;;;;;;;16.70;11.30;;;;;;;21.09;73.08;96823.80;114024;1205;27798;-83
2021/09/13 08:57:17;;;;;;;15.50;12.00;;;;;;;21.03;73.11;96822.86;113956;1205;47461;-84
2021/09/13 08:59:49;;;;;;;14.10;11.80;;;;;;;21.04;73.47;96829.20;113992;1206;28162;-85
2021/09/13 09:02:21;;;;;;;13.80;11.60;;;;;;;21.11;73.61;96827.30;113952;1209;28372;-84
2021/09/13 09:04:54;;;;;;;14.50;10.80;;;;;;;21.14;73.55;96829.58;113916;1205;48665;-84
2021/09/13 09:07:26;;;;;;;14.00;11.40;;;;;;;21.25;73.70;96829.77;113871;1204;58555;-86
2021/09/13 09:10:11;;;;;;;13.60;11.50;;;;;;;21.58;74.02;96827.37;113804;1200;28477;-84
2021/09/13 09:13:00;;;;;;;14.90;11.40;;;;;;;21.96;73.48;96826.67;113887;1209;56638;-83
2021/09/13 09:15:32;;;;;;;12.90;10.90;;;;;;;22.07;71.43;96823.15;113970;1205;62981;-85
2021/09/13 09:18:04;;;;;;;13.40;11.30;;;;;;;22.10;71.16;96824.48;114022;1204;27332;-86
2021/09/13 09:20:44;;;;;;;13.90;11.40;;;;;;;22.02;70.30;96825.92;114067;1209;27626;-84
2021/09/13 09:23:17;;;;;;;14.80;11.70;;;;;;;22.06;70.51;96825.48;113933;1203;31353;-85
2021/09/13 09:25:48;;;;;;;19.40;14.10;;;;;;;22.14;69.98;96829.89;113987;1205;29265;-86
2021/09/13 09:28:19;;;;;;;14.60;12.30;;;;;;;22.21;69.76;96825.56;113970;1205;35840;-85
2021/09/13 09:30:51;;;;;;;13.90;11.30;;;;;;;22.31;69.28;96826.20;114003;1205;28017;-86
2021/09/13 09:33:25;;;;;;;13.60;11.40;;;;;;;22.25;68.11;96822.44;113940;1208;31807;-86
2021/09/13 09:35:58;;;;;;;13.10;11.10;;;;;;;22.10;67.99;96821.84;114020;1207;31518;-85
2021/09/13 09:38:32;;;;;;;13.20;10.40;;;;;;;22.22;69.03;96819.89;114014;1205;27863;-85
2021/09/13 09:41:08;;;;;;;13.50;11.10;;;;;;;22.53;68.36;96820.48;114022;1209;28873;-84
2021/09/13 09:43:56;;;;;;;16.90;11.50;;;;;;;22.40;66.84;96822.13;114046;1206;36630;-85
2021/09/13 09:46:38;;;;;;;14.50;11.30;;;;;;;22.10;68.31;96822.91;113879;1205;29929;-85
2021/09/13 09:49:12;;;;;;;12.20;10.40;;;;;;;22.03;69.10;96823.39;114029;1206;30158;-85
2021/09/13 09:51:49;;;;;;;13.60;11.40;;;;;;;22.02;69.17;96821.91;113971;1205;32514;-85
2021/09/13 09:54:22;;;;;;;13.20;11.00;;;;;;;21.79;68.69;96819.52;113987;1210;30464;-85
2021/09/13 09:57:01;;;;;;;15.30;11.40;;;;;;;21.42;68.52;96821.23;113982;1205;33026;-85
2021/09/13 09:59:37;;;;;;;17.40;12.20;;;;;;;21.16;69.10;96823.30;114043;1197;31427;-86
2021/09/13 10:02:16;;;;;;;16.00;12.60;;;;;;;20.92;69.32;96822.54;114063;1211;29789;-86
2021/09/13 10:04:58;;;;;;;15.70;12.40;;;;;;;20.66;69.72;96818.06;114057;1200;26976;-85
2021/09/13 10:07:29;;;;;;;15.90;12.10;;;;;;;20.52;70.19;96817.69;113996;1205;32030;-86
2021/09/13 10:10:01;;;;;;;14.60;12.30;;;;;;;20.62;71.05;96817.23;113984;1203;37390;-87
2021/09/13 10:12:32;;;;;;;13.70;12.10;;;;;;;20.85;71.30;96821.07;114104;1202;29671;-85
2021/09/13 10:15:04;;;;;;;15.40;12.30;;;;;;;21.19;71.41;96820.78;113948;1205;58745;-85
2021/09/13 10:17:36;;;;;;;14.40;11.90;;;;;;;21.21;69.98;96816.22;114003;1205;54267;-85
2021/09/13 10:20:10;;;;;;;15.20;11.10;;;;;;;21.27;69.98;96814.05;114000;1207;26997;-85
2021/09/13 10:22:43;;;;;;;15.70;12.60;;;;;;;21.30;69.01;96812.42;114018;1209;27888;-85
2021/09/13 10:25:16;;;;;;;20.30;15.20;;;;;;;21.24;68.79;96814.45;114077;1204;26526;-85
2021/09/13 10:27:48;;;;;;;16.40;12.90;;;;;;;21.23;68.92;96807.88;113997;1205;33936;-85
2021/09/13 10:30:22;;;;;;;15.60;12.60;;;;;;;21.28;69.26;96810.73;114066;1205;29762;-85
2021/09/13 10:33:09;;;;;;;16.90;12.80;;;;;;;21.46;69.67;96813.86;113985;1205;76603;-85
2021/09/13 10:38:46;;;;;;;15.40;11.40;;;;;;;21.73;68.56;96807.58;112390;1225;571923;-85
2021/09/13 10:41:56;;;;;;;15.40;12.60;;;;;;;21.71;68.58;96806.85;113668;1208;24752;-84
2021/09/13 10:44:36;;;;;;;13.70;11.30;;;;;;;21.73;67.98;96799.95;113528;1211;27524;-85
2021/09/13 10:47:08;;;;;;;16.10;11.80;;;;;;;21.70;68.32;96799.16;114113;1205;27775;-84
2021/09/13 10:49:39;;;;;;;14.40;11.50;;;;;;;21.78;68.27;96794.08;114075;1209;27639;-85
2021/09/13 10:52:37;;;;;;;15.00;11.50;;;;;;;21.88;68.27;96790.78;114109;1204;28251;-84
2021/09/13 10:55:38;;;;;;;13.80;10.90;;;;;;;21.95;67.78;96787.48;114081;1206;26593;-85
2021/09/13 10:58:14;;;;;;;13.30;9.80;;;;;;;22.00;68.13;96794.73;113834;1212;31545;-84
2021/09/13 11:01:00;;;;;;;13.20;9.20;;;;;;;22.23;68.94;96796.31;113710;1208;48445;-84
2021/09/13 11:03:48;;;;;;;9.90;8.20;;;;;;;22.47;67.96;96791.94;114032;1205;31542;-84
2021/09/13 11:06:40;;;;;;;10.20;8.60;;;;;;;22.50;65.41;96788.91;114007;1208;27478;-85
2021/09/13 11:09:15;;;;;;;10.20;8.20;;;;;;;22.42;65.20;96787.35;113911;1204;27559;-83
2021/09/13 11:11:53;;;;;;;14.80;11.50;;;;;;;22.35;64.74;96790.33;113971;1204;27280;-84
2021/09/13 11:14:26;;;;;;;12.50;10.00;;;;;;;22.17;64.71;96782.50;113984;1204;27634;-84
2021/09/13 11:17:01;;;;;;;12.90;9.90;;;;;;;22.04;65.08;96784.23;114042;1211;25497;-84
2021/09/13 11:19:33;;;;;;;11.70;9.70;;;;;;;22.04;65.38;96781.38;113976;1209;33404;-83
2021/09/13 11:22:06;;;;;;;13.90;11.30;;;;;;;21.96;65.11;96783.11;114020;1205;26691;-84
2021/09/13 11:24:40;;;;;;;12.80;10.20;;;;;;;21.84;64.76;96790.14;114077;1203;27942;-84
2021/09/13 11:27:14;;;;;;;12.30;10.30;;;;;;;21.86;64.75;96789.27;113971;1206;30024;-83
2021/09/13 11:29:47;;;;;;;15.70;12.10;;;;;;;22.03;65.14;96788.83;114029;1205;27736;-85
2021/09/13 11:32:21;;;;;;;12.10;9.80;;;;;;;22.11;65.10;96785.23;114029;1203;43085;-85
2021/09/13 11:34:53;;;;;;;15.10;10.70;;;;;;;22.21;64.89;96781.66;113997;1204;28110;-85
2021/09/13 11:37:33;;;;;;;13.20;8.60;;;;;;;22.34;64.30;96781.20;113993;1209;27921;-86
2021/09/13 11:40:10;;;;;;;11.20;8.80;;;;;;;22.51;64.69;96773.83;114055;1205;23962;-85
2021/09/13 11:42:41;;;;;;;9.00;7.90;;;;;;;22.66;63.95;96769.73;114071;1204;25572;-84